Time;durP1;ratioP1;P1;durP2;ratioP2;P2;SDS_P1;SDS_P2;PMS_P1;PMS_P2;Temp;Humidity;BMP_temperature;BMP_pressure;BME280_temperature;BME280_humidity;BME280_pressure;Samples;Min_cycle;Max_cycle;Signal;HPM_P1;HPM_P2
2021/04/09 00:01:23;;;;;;;10.63;9.43;;;4.50;99.90;;;;;;5130111;27;20564;-65
2021/04/09 00:03:49;;;;;;;11.80;9.93;;;4.50;99.90;;;;;;5129530;28;20215;-65
2021/04/09 00:06:14;;;;;;;14.83;9.90;;;4.50;99.90;;;;;;5130055;28;20155;-65
2021/04/09 00:08:40;;;;;;;14.60;9.97;;;4.50;99.90;;;;;;5128662;28;20665;-65
2021/04/09 00:11:05;;;;;;;13.43;10.40;;;4.50;99.90;;;;;;5129811;28;20615;-65
2021/04/09 00:13:31;;;;;;;11.73;9.80;;;4.50;99.90;;;;;;5120943;27;20520;-65
2021/04/09 00:15:56;;;;;;;22.50;16.73;;;4.50;99.90;;;;;;5104665;28;20675;-65
2021/04/09 00:18:22;;;;;;;23.17;14.63;;;4.50;99.90;;;;;;5096243;28;20159;-65
2021/04/09 00:20:47;;;;;;;31.67;19.13;;;4.50;99.90;;;;;;5096180;28;20178;-65
2021/04/09 00:23:13;;;;;;;18.13;13.20;;;4.50;99.90;;;;;;5095753;28;20150;-65
2021/04/09 00:25:38;;;;;;;17.03;11.87;;;4.50;99.90;;;;;;5095656;28;20151;-65
2021/04/09 00:28:04;;;;;;;16.90;12.10;;;4.50;99.90;;;;;;5095843;28;20208;-65
2021/04/09 00:30:30;;;;;;;15.30;11.93;;;4.50;99.90;;;;;;5095777;28;20184;-65
2021/04/09 00:32:55;;;;;;;16.43;12.23;;;4.50;99.90;;;;;;5095619;28;20506;-65
2021/04/09 00:35:21;;;;;;;17.10;13.03;;;4.50;99.90;;;;;;5095373;28;20526;-65
2021/04/09 00:37:47;;;;;;;17.13;12.40;;;4.50;99.90;;;;;;5094642;28;20186;-65
2021/04/09 00:40:13;;;;;;;10.47;9.40;;;4.60;99.90;;;;;;5095403;28;20440;-65
2021/04/09 00:42:40;;;;;;;12.63;8.90;;;4.50;99.90;;;;;;5095339;28;20469;-65
2021/04/09 00:45:07;;;;;;;10.00;9.00;;;4.60;99.90;;;;;;5094265;28;20393;-65
2021/04/09 00:47:33;;;;;;;11.10;8.47;;;4.60;99.90;;;;;;5095042;28;20426;-65
2021/04/09 00:49:58;;;;;;;10.90;9.53;;;4.60;99.90;;;;;;5095031;28;20385;-66
2021/04/09 00:52:29;;;;;;;10.63;9.53;;;4.60;99.90;;;;;;5094950;28;20158;-65
2021/04/09 00:54:55;;;;;;;9.90;8.90;;;4.60;99.90;;;;;;5095692;28;20171;-65
2021/04/09 00:57:20;;;;;;;11.33;8.70;;;4.60;99.90;;;;;;5095178;28;20482;-65
2021/04/09 00:59:46;;;;;;;10.20;8.33;;;4.60;99.90;;;;;;5095087;28;20243;-65
2021/04/09 01:02:12;;;;;;;12.40;8.00;;;4.60;99.90;;;;;;5094712;28;20198;-65
2021/04/09 01:04:38;;;;;;;11.10;8.67;;;4.60;99.90;;;;;;5094837;28;20634;-65
2021/04/09 01:07:04;;;;;;;11.03;8.23;;;4.60;99.90;;;;;;5093652;28;20155;-65
2021/04/09 01:09:29;;;;;;;11.37;8.20;;;4.60;99.90;;;;;;5094777;28;20388;-65
2021/04/09 01:11:55;;;;;;;18.10;11.20;;;4.60;99.90;;;;;;5095758;28;20408;-65
2021/04/09 01:14:20;;;;;;;28.53;19.30;;;4.60;99.90;;;;;;5094811;28;20170;-65
2021/04/09 01:16:57;;;;;;;25.70;13.93;;;4.70;99.90;;;;;;5094725;28;20644;-65
2021/04/09 01:22:03;;;;;;;14.27;9.73;;;4.70;99.90;;;;;;5090495;28;20503;-65
2021/04/09 01:25:02;;;;;;;14.90;9.37;;;4.70;99.90;;;;;;5090418;28;20397;-66
2021/04/09 01:27:56;;;;;;;10.80;7.97;;;4.70;99.90;;;;;;5075178;28;20386;-65
2021/04/09 01:33:00;;;;;;;9.13;7.60;;;4.70;99.90;;;;;;5131175;27;20508;-65
2021/04/09 01:35:26;;;;;;;10.27;8.10;;;4.60;99.90;;;;;;5131245;28;20444;-65
2021/04/09 01:37:55;;;;;;;12.10;8.53;;;4.60;99.90;;;;;;5131269;28;20388;-65
2021/04/09 01:40:23;;;;;;;14.20;9.83;;;4.60;99.90;;;;;;5131052;28;20879;-65
2021/04/09 01:42:53;;;;;;;12.13;9.13;;;4.60;99.90;;;;;;5131178;28;20411;-65
2021/04/09 01:45:20;;;;;;;12.30;8.83;;;4.60;99.90;;;;;;5125232;28;20486;-65
2021/04/09 01:47:48;;;;;;;10.10;8.00;;;4.60;99.90;;;;;;5110681;28;20814;-65
2021/04/09 01:50:16;;;;;;;10.70;7.80;;;4.60;99.90;;;;;;5110804;28;20384;-65
2021/04/09 01:52:44;;;;;;;11.70;7.60;;;4.60;99.90;;;;;;5110293;28;20990;-65
2021/04/09 01:55:11;;;;;;;15.03;9.40;;;4.60;99.90;;;;;;5110351;28;20420;-65
2021/04/09 01:57:40;;;;;;;8.70;7.50;;;4.60;99.90;;;;;;5110499;28;20444;-65
2021/04/09 02:00:12;;;;;;;8.73;7.27;;;4.60;99.90;;;;;;5110312;28;20464;-65
2021/04/09 02:02:41;;;;;;;16.27;8.23;;;4.60;99.90;;;;;;5109602;28;20904;-65
2021/04/09 02:05:07;;;;;;;9.97;7.57;;;4.60;99.90;;;;;;5110298;28;20492;-65
2021/04/09 02:07:34;;;;;;;9.23;7.27;;;4.60;99.90;;;;;;5110309;28;20411;-65
2021/04/09 02:10:03;;;;;;;8.47;6.83;;;4.60;99.90;;;;;;5110095;28;20397;-65
2021/04/09 02:12:29;;;;;;;12.30;8.40;;;4.60;99.90;;;;;;5108737;28;20444;-65
2021/04/09 02:14:56;;;;;;;9.27;8.20;;;4.60;99.90;;;;;;5110105;28;20422;-65
2021/04/09 02:17:23;;;;;;;8.23;6.60;;;4.60;99.90;;;;;;5109951;28;20237;-65
2021/04/09 02:19:48;;;;;;;10.40;7.43;;;4.60;99.90;;;;;;5119549;28;20411;-65
2021/04/09 02:22:14;;;;;;;12.70;7.67;;;4.60;99.90;;;;;;5130289;28;20393;-65
2021/04/09 02:24:40;;;;;;;11.67;8.43;;;4.60;99.90;;;;;;5130402;28;20170;-65
2021/04/09 02:27:06;;;;;;;12.87;9.80;;;4.60;99.90;;;;;;5130407;28;20166;-65
2021/04/09 02:29:33;;;;;;;12.77;9.43;;;4.60;99.90;;;;;;5130281;27;20158;-65
2021/04/09 02:31:59;;;;;;;11.40;10.00;;;4.60;99.90;;;;;;5130168;27;20492;-65
2021/04/09 02:34:26;;;;;;;10.30;9.10;;;4.60;99.90;;;;;;5130558;27;20388;-64
2021/04/09 02:36:52;;;;;;;12.67;8.87;;;4.60;99.90;;;;;;5111450;28;20415;-64
2021/04/09 02:39:20;;;;;;;9.40;7.47;;;4.60;99.90;;;;;;5130057;27;20406;-64
2021/04/09 02:41:54;;;;;;;9.53;8.20;;;4.60;99.90;;;;;;5130062;28;20883;-64
2021/04/09 02:44:20;;;;;;;12.73;8.47;;;4.60;99.90;;;;;;5098971;28;20396;-64
2021/04/09 02:49:48;;;;;;;12.20;8.80;;;4.60;99.90;;;;;;5090433;28;21029;-64
2021/04/09 02:54:55;;;;;;;9.40;7.97;;;4.60;99.90;;;;;;5111582;27;20516;-63
2021/04/09 02:57:24;;;;;;;9.57;8.37;;;4.60;99.90;;;;;;5110792;28;20408;-63
2021/04/09 02:59:51;;;;;;;12.80;8.90;;;4.60;99.90;;;;;;5110857;28;20446;-64
2021/04/09 03:02:16;;;;;;;11.90;8.53;;;4.60;99.90;;;;;;5109673;28;20474;-64
2021/04/09 03:04:43;;;;;;;11.57;8.60;;;4.60;99.90;;;;;;5110508;28;20476;-64
2021/04/09 03:07:11;;;;;;;9.97;7.60;;;4.60;99.90;;;;;;5109314;28;20476;-65
2021/04/09 03:09:37;;;;;;;8.80;7.80;;;4.60;99.90;;;;;;5109429;28;20759;-64
2021/04/09 03:12:15;;;;;;;9.13;7.73;;;4.60;99.90;;;;;;5109115;28;20438;-64
2021/04/09 03:14:42;;;;;;;11.50;8.70;;;4.70;99.90;;;;;;5109007;28;20765;-64
2021/04/09 03:17:11;;;;;;;10.77;8.50;;;4.60;99.90;;;;;;5109137;28;20427;-64
2021/04/09 03:19:37;;;;;;;9.57;7.30;;;4.70;99.90;;;;;;5110197;28;20953;-64
2021/04/09 03:22:07;;;;;;;13.60;7.83;;;4.70;99.90;;;;;;5110184;28;20392;-64
2021/04/09 03:24:33;;;;;;;12.27;7.60;;;4.70;99.90;;;;;;5110725;28;20746;-64
2021/04/09 03:26:59;;;;;;;10.33;8.43;;;4.70;99.90;;;;;;5109985;28;20427;-63
2021/04/09 03:29:24;;;;;;;13.13;9.17;;;4.70;99.90;;;;;;5110324;28;20215;-64
2021/04/09 03:31:50;;;;;;;9.60;8.43;;;4.70;99.90;;;;;;5109971;28;20642;-64
2021/04/09 03:34:15;;;;;;;12.70;8.83;;;4.70;99.90;;;;;;5110095;28;20206;-64
2021/04/09 03:36:41;;;;;;;11.27;9.10;;;4.70;99.90;;;;;;5109979;28;20518;-64
2021/04/09 03:39:06;;;;;;;11.37;8.50;;;4.70;99.90;;;;;;5110465;28;20261;-64
2021/04/09 03:41:32;;;;;;;9.00;7.70;;;4.70;99.90;;;;;;5110310;28;20608;-64
2021/04/09 03:43:57;;;;;;;11.90;9.70;;;4.70;99.90;;;;;;5109643;28;20185;-63
2021/04/09 03:46:23;;;;;;;8.83;7.97;;;4.70;99.90;;;;;;5109958;28;20190;-63
2021/04/09 03:48:48;;;;;;;10.97;7.90;;;4.70;99.90;;;;;;5110006;28;20191;-64
2021/04/09 03:51:14;;;;;;;12.80;9.00;;;4.70;99.90;;;;;;5109619;28;20504;-64
2021/04/09 03:53:39;;;;;;;10.53;8.30;;;4.70;99.90;;;;;;5109672;28;20195;-64
2021/04/09 03:56:05;;;;;;;9.27;8.40;;;4.70;99.90;;;;;;5109869;28;20177;-64
2021/04/09 03:58:31;;;;;;;10.57;8.70;;;4.70;99.90;;;;;;5109562;28;20181;-64
2021/04/09 04:00:56;;;;;;;10.00;8.77;;;4.70;99.90;;;;;;5109176;28;20217;-64
2021/04/09 04:03:22;;;;;;;11.80;10.57;;;4.70;99.90;;;;;;5109454;28;20162;-64
2021/04/09 04:05:47;;;;;;;10.13;9.10;;;4.60;99.90;;;;;;5098637;28;20167;-64
2021/04/09 04:08:13;;;;;;;10.47;9.30;;;4.60;99.90;;;;;;5096343;28;20630;-64
2021/04/09 04:10:38;;;;;;;10.67;9.43;;;4.60;99.90;;;;;;5095916;28;20204;-64
2021/04/09 04:13:05;;;;;;;12.03;9.50;;;4.60;99.90;;;;;;5095706;28;20211;-64
2021/04/09 04:15:30;;;;;;;18.30;9.10;;;4.60;99.90;;;;;;5095594;28;20296;-64
2021/04/09 04:17:57;;;;;;;14.57;12.03;;;4.60;99.90;;;;;;5095690;28;20416;-64
2021/04/09 04:20:22;;;;;;;13.07;9.37;;;4.60;99.90;;;;;;5096106;28;20178;-64
2021/04/09 04:22:48;;;;;;;12.10;8.67;;;4.60;99.90;;;;;;5095793;28;20394;-64
2021/04/09 04:25:13;;;;;;;12.43;9.90;;;4.60;99.90;;;;;;5095856;28;20208;-64
2021/04/09 04:27:39;;;;;;;9.80;8.90;;;4.60;99.90;;;;;;5095713;28;20350;-64
2021/04/09 04:30:05;;;;;;;10.77;8.37;;;4.60;99.90;;;;;;5095659;28;20244;-64
2021/04/09 04:32:31;;;;;;;10.83;9.63;;;4.60;99.90;;;;;;5095587;28;20163;-64
2021/04/09 04:34:57;;;;;;;13.37;8.43;;;4.70;99.90;;;;;;5095405;28;20413;-64
2021/04/09 04:37:22;;;;;;;10.27;8.50;;;4.70;99.90;;;;;;5095297;28;20156;-64
2021/04/09 04:39:48;;;;;;;9.73;8.67;;;4.70;99.90;;;;;;5095401;28;20160;-64
2021/04/09 04:42:13;;;;;;;10.90;8.97;;;4.70;99.90;;;;;;5095171;28;20158;-64
2021/04/09 04:44:39;;;;;;;10.67;9.57;;;4.70;99.90;;;;;;5095099;28;20632;-64
2021/04/09 04:47:04;;;;;;;10.00;8.40;;;4.80;99.90;;;;;;5095206;28;20520;-64
2021/04/09 04:49:31;;;;;;;10.73;9.07;;;4.80;99.90;;;;;;5095115;28;20211;-64
2021/04/09 04:51:56;;;;;;;11.60;9.73;;;4.80;99.90;;;;;;5095032;28;20221;-64
2021/04/09 04:54:22;;;;;;;10.13;8.53;;;4.80;99.90;;;;;;5094715;28;20488;-64
2021/04/09 04:56:47;;;;;;;12.83;9.73;;;4.80;99.90;;;;;;5094922;28;20232;-64
2021/04/09 04:59:12;;;;;;;13.53;10.30;;;4.80;99.90;;;;;;5094789;28;20160;-64
2021/04/09 05:01:38;;;;;;;10.77;8.67;;;4.90;99.90;;;;;;5095078;28;20174;-64
2021/04/09 05:04:04;;;;;;;10.33;9.33;;;4.90;99.90;;;;;;5095112;28;20216;-64
2021/04/09 05:06:29;;;;;;;12.67;10.23;;;4.90;99.90;;;;;;5095059;28;20170;-64
2021/04/09 05:08:55;;;;;;;12.20;9.40;;;4.90;99.90;;;;;;5094693;28;20568;-64
2021/04/09 05:11:22;;;;;;;11.37;10.27;;;5.00;99.90;;;;;;5094573;28;20570;-64
2021/04/09 05:13:48;;;;;;;10.50;8.90;;;5.00;99.90;;;;;;5094763;28;20214;-64
2021/04/09 05:16:13;;;;;;;11.27;8.80;;;5.10;99.90;;;;;;5093999;28;20777;-64
2021/04/09 05:18:39;;;;;;;11.53;10.33;;;5.10;99.90;;;;;;5094407;28;20151;-64
2021/04/09 05:21:06;;;;;;;11.60;10.37;;;5.20;99.90;;;;;;5094513;28;20201;-64
2021/04/09 05:23:32;;;;;;;16.47;10.23;;;5.20;99.90;;;;;;5094308;28;20574;-64
2021/04/09 05:25:57;;;;;;;14.87;11.67;;;5.30;99.90;;;;;;5094452;28;20408;-64
2021/04/09 05:28:23;;;;;;;10.93;9.80;;;5.30;99.90;;;;;;5094836;28;20598;-64
2021/04/09 05:30:48;;;;;;;12.67;9.30;;;5.40;99.90;;;;;;5094332;28;20230;-64
2021/04/09 05:33:14;;;;;;;12.77;9.23;;;5.40;99.90;;;;;;5094231;28;20315;-64
2021/04/09 05:35:39;;;;;;;10.47;9.30;;;5.50;99.90;;;;;;5094290;28;20190;-64
2021/04/09 05:38:05;;;;;;;12.50;10.47;;;5.50;99.90;;;;;;5094262;28;20152;-64
2021/04/09 05:40:30;;;;;;;11.73;10.20;;;5.60;99.90;;;;;;5094213;28;20152;-64
2021/04/09 05:42:58;;;;;;;13.27;9.83;;;5.70;99.90;;;;;;5093973;28;20220;-64
2021/04/09 05:45:25;;;;;;;10.87;9.77;;;5.70;99.90;;;;;;5094215;28;20215;-64
2021/04/09 05:47:51;;;;;;;11.80;9.43;;;5.70;99.90;;;;;;5094027;28;20775;-64
2021/04/09 05:50:17;;;;;;;12.00;10.23;;;5.70;99.90;;;;;;5093940;28;20493;-64
2021/04/09 05:52:43;;;;;;;13.40;10.30;;;5.80;99.90;;;;;;5093683;28;20162;-64
2021/04/09 05:55:09;;;;;;;12.57;9.10;;;5.80;99.90;;;;;;5094147;28;20393;-64
2021/04/09 05:57:35;;;;;;;12.87;9.60;;;5.80;99.90;;;;;;5094200;28;20158;-64
2021/04/09 06:00:01;;;;;;;11.17;10.17;;;5.90;99.90;;;;;;5093944;28;20413;-64
2021/04/09 06:02:26;;;;;;;10.60;9.30;;;5.90;99.90;;;;;;5094028;28;20400;-64
2021/04/09 06:04:52;;;;;;;11.93;9.53;;;6.00;99.90;;;;;;5093903;28;20396;-64
2021/04/09 06:07:17;;;;;;;13.13;9.17;;;6.00;99.90;;;;;;5093727;28;20175;-64
2021/04/09 06:09:43;;;;;;;11.93;9.43;;;6.10;99.90;;;;;;5093775;28;20151;-64
2021/04/09 06:12:09;;;;;;;11.57;9.60;;;6.20;99.90;;;;;;5093713;28;20183;-64
2021/04/09 06:14:34;;;;;;;13.03;8.60;;;6.30;99.90;;;;;;5093473;28;20179;-64
2021/04/09 06:17:01;;;;;;;11.57;8.50;;;6.40;99.90;;;;;;5093330;28;20564;-64
2021/04/09 06:19:26;;;;;;;13.07;9.07;;;6.50;99.90;;;;;;5093529;28;20558;-64
2021/04/09 06:21:52;;;;;;;10.93;9.50;;;6.50;99.90;;;;;;5092375;28;20382;-64
2021/04/09 06:24:17;;;;;;;11.13;8.90;;;6.60;99.90;;;;;;5093373;28;20214;-64
2021/04/09 06:26:43;;;;;;;10.97;9.13;;;6.60;99.90;;;;;;5093423;28;20157;-64
2021/04/09 06:29:08;;;;;;;11.10;9.00;;;6.70;99.90;;;;;;5093119;28;20163;-64
2021/04/09 06:31:34;;;;;;;12.43;9.57;;;6.80;99.90;;;;;;5093638;28;20163;-64
2021/04/09 06:33:59;;;;;;;11.47;9.53;;;7.00;99.90;;;;;;5093384;28;20291;-64
2021/04/09 06:36:25;;;;;;;9.63;8.63;;;7.10;99.90;;;;;;5093511;28;20229;-64
2021/04/09 06:38:51;;;;;;;10.13;8.90;;;7.10;99.90;;;;;;5092005;28;20641;-64
2021/04/09 06:41:17;;;;;;;11.77;9.00;;;7.20;99.90;;;;;;5093261;28;20149;-64
2021/04/09 06:43:43;;;;;;;12.70;9.67;;;7.30;99.90;;;;;;5093624;28;20169;-64
2021/04/09 06:46:08;;;;;;;9.83;8.80;;;7.40;99.40;;;;;;5093056;28;20442;-64
2021/04/09 06:48:35;;;;;;;12.40;9.80;;;7.50;99.90;;;;;;5093368;28;20164;-66
2021/04/09 06:51:01;;;;;;;10.77;9.20;;;7.50;99.50;;;;;;5092948;28;20176;-66
2021/04/09 06:53:28;;;;;;;10.40;9.30;;;7.60;99.40;;;;;;5092978;28;20461;-66
2021/04/09 06:55:54;;;;;;;14.63;8.90;;;7.70;98.80;;;;;;5093130;28;20387;-66
2021/04/09 06:58:22;;;;;;;11.27;8.90;;;7.80;98.30;;;;;;5093109;28;20400;-67
2021/04/09 07:00:50;;;;;;;10.53;7.97;;;7.90;97.80;;;;;;5091815;28;20449;-66
2021/04/09 07:03:16;;;;;;;9.37;8.30;;;8.00;97.70;;;;;;5093290;28;20404;-65
2021/04/09 07:05:42;;;;;;;9.80;8.43;;;8.10;97.80;;;;;;5093053;28;20576;-66
2021/04/09 07:08:07;;;;;;;9.00;7.30;;;8.30;97.10;;;;;;5092638;28;20186;-66
2021/04/09 07:10:33;;;;;;;11.40;8.30;;;8.40;96.30;;;;;;5092893;28;20208;-66
2021/04/09 07:13:14;;;;;;;10.83;9.07;;;8.50;96.40;;;;;;5092715;28;20634;-66
2021/04/09 07:15:42;;;;;;;8.73;7.83;;;8.70;95.80;;;;;;5092972;28;20538;-65
2021/04/09 07:18:10;;;;;;;9.27;8.30;;;8.80;95.60;;;;;;5093023;28;20755;-65
2021/04/09 07:20:37;;;;;;;10.90;8.00;;;8.90;95.60;;;;;;5093039;28;20384;-66
2021/04/09 07:23:05;;;;;;;9.63;7.10;;;9.10;94.30;;;;;;5092813;28;20399;-66
2021/04/09 07:25:34;;;;;;;9.87;7.30;;;9.10;94.00;;;;;;5092937;28;20832;-65
2021/04/09 07:28:18;;;;;;;11.57;8.80;;;9.20;93.40;;;;;;5092969;28;20389;-66
2021/04/09 07:30:50;;;;;;;16.30;7.70;;;9.30;93.80;;;;;;5093000;28;20385;-66
2021/04/09 07:33:17;;;;;;;8.80;7.33;;;9.40;93.50;;;;;;5092581;28;20593;-66
2021/04/09 07:41:06;;;;;;;12.30;7.90;;;10.00;90.70;;;;;;5131587;27;20502;-65
2021/04/09 07:43:34;;;;;;;11.10;8.40;;;10.10;91.00;;;;;;5114420;28;20463;-65
2021/04/09 07:46:02;;;;;;;8.80;7.13;;;10.30;91.20;;;;;;5110838;28;20423;-65
2021/04/09 07:51:06;;;;;;;9.67;7.00;;;10.60;86.90;;;;;;5111034;27;20504;-64
2021/04/09 07:56:11;;;;;;;12.00;7.63;;;10.80;85.90;;;;;;5131412;27;20507;-64
2021/04/09 07:58:38;;;;;;;8.97;7.00;;;10.90;81.10;;;;;;5130915;28;20391;-64
2021/04/09 08:01:05;;;;;;;10.47;7.77;;;11.00;80.50;;;;;;5111060;28;20396;-65
2021/04/09 08:08:58;;;;;;;7.67;6.57;;;11.20;79.70;;;;;;5090916;28;20507;-64
2021/04/09 08:16:45;;;;;;;10.43;7.90;;;11.50;77.50;;;;;;5130511;27;20564;-64
2021/04/09 08:19:26;;;;;;;8.03;6.40;;;11.90;75.10;;;;;;5130090;28;20474;-65
2021/04/09 08:21:55;;;;;;;11.80;7.90;;;12.10;74.80;;;;;;5131320;28;20387;-66
2021/04/09 08:24:22;;;;;;;8.53;6.70;;;12.30;73.10;;;;;;5131365;28;20391;-66
2021/04/09 08:26:50;;;;;;;9.10;7.33;;;12.50;70.10;;;;;;5129982;28;20394;-65
2021/04/09 08:29:17;;;;;;;9.00;7.17;;;12.70;70.60;;;;;;5130998;28;20390;-66
2021/04/09 08:31:42;;;;;;;11.07;7.80;;;12.90;69.20;;;;;;5130269;28;20769;-65
2021/04/09 08:34:10;;;;;;;8.63;6.80;;;13.10;68.40;;;;;;5130260;28;20438;-65
2021/04/09 08:36:39;;;;;;;10.37;7.73;;;13.30;66.60;;;;;;5131398;28;20186;-65
2021/04/09 08:39:09;;;;;;;10.17;7.03;;;13.40;64.80;;;;;;5130134;28;20864;-65
2021/04/09 08:41:36;;;;;;;12.17;8.00;;;13.60;66.10;;;;;;5129989;28;20391;-65
2021/04/09 08:44:02;;;;;;;12.87;7.07;;;13.80;63.10;;;;;;5131141;28;20397;-65
2021/04/09 08:46:27;;;;;;;11.83;7.10;;;14.00;63.90;;;;;;5130815;28;20435;-65
2021/04/09 08:48:55;;;;;;;8.90;8.03;;;14.20;61.50;;;;;;5129741;28;20211;-65
2021/04/09 08:51:23;;;;;;;15.03;8.90;;;14.10;60.20;;;;;;5130444;27;20535;-65
2021/04/09 08:53:49;;;;;;;11.40;9.63;;;14.10;60.90;;;;;;5130845;28;20391;-65
2021/04/09 08:56:33;;;;;;;11.70;9.27;;;14.20;61.10;;;;;;5129389;28;20440;-65
2021/04/09 08:58:59;;;;;;;13.07;8.30;;;14.30;60.90;;;;;;5130610;27;20390;-65
2021/04/09 09:01:25;;;;;;;9.97;8.47;;;14.50;59.30;;;;;;5130855;28;20690;-65
2021/04/09 09:03:50;;;;;;;10.47;7.60;;;14.70;58.10;;;;;;5130668;28;20606;-65
2021/04/09 09:06:16;;;;;;;8.53;7.00;;;14.90;58.20;;;;;;5130545;27;20733;-65
2021/04/09 09:11:54;;;;;;;11.57;8.57;;;15.00;58.60;;;;;;5110819;27;20880;-64
2021/04/09 09:20:13;;;;;;;9.70;7.27;;;15.10;57.70;;;;;;5131595;27;20519;-64
2021/04/09 09:22:46;;;;;;;17.20;7.30;;;15.30;56.70;;;;;;5131569;28;20392;-64
2021/04/09 09:25:12;;;;;;;10.67;7.30;;;15.10;56.30;;;;;;5116778;28;20403;-64
2021/04/09 09:27:48;;;;;;;9.87;7.67;;;15.00;56.70;;;;;;5110935;28;20448;-64
2021/04/09 09:30:37;;;;;;;8.40;6.67;;;15.00;56.90;;;;;;5111025;28;20160;-64
2021/04/09 09:36:10;;;;;;;9.43;7.03;;;15.00;57.00;;;;;;5131445;27;21142;-64
2021/04/09 09:41:44;;;;;;;11.93;7.50;;;15.10;56.30;;;;;;5103516;27;20921;-64
2021/04/09 09:44:31;;;;;;;12.60;8.17;;;15.20;56.30;;;;;;5090935;28;20397;-64
2021/04/09 09:47:01;;;;;;;8.73;7.73;;;15.30;56.70;;;;;;5089612;28;20419;-64
2021/04/09 09:49:28;;;;;;;11.17;7.80;;;15.40;56.00;;;;;;5090374;28;20396;-64
2021/04/09 09:51:54;;;;;;;10.13;7.67;;;15.40;56.70;;;;;;5089368;28;20478;-64
2021/04/09 09:54:22;;;;;;;11.37;8.97;;;15.40;55.20;;;;;;5090509;28;20434;-64
2021/04/09 09:56:47;;;;;;;10.97;7.40;;;15.40;55.90;;;;;;5090389;28;20393;-64
2021/04/09 09:59:28;;;;;;;12.40;7.90;;;15.40;56.40;;;;;;5090053;28;20408;-64
2021/04/09 10:01:57;;;;;;;9.17;6.80;;;15.40;56.10;;;;;;5090469;28;20166;-64
2021/04/09 10:04:23;;;;;;;9.97;6.80;;;15.50;55.00;;;;;;5090298;28;20402;-64
2021/04/09 10:06:51;;;;;;;13.37;7.37;;;15.50;55.80;;;;;;5090283;28;20819;-64
2021/04/09 10:12:00;;;;;;;6.90;6.20;;;15.50;55.30;;;;;;5131519;27;20557;-64
2021/04/09 10:14:28;;;;;;;6.77;6.07;;;15.50;55.40;;;;;;5131559;28;20391;-64
2021/04/09 10:16:56;;;;;;;8.70;7.00;;;15.50;55.90;;;;;;5111977;28;20876;-64
2021/04/09 10:19:22;;;;;;;8.73;7.83;;;15.60;56.80;;;;;;5110977;28;20762;-66
2021/04/09 10:21:47;;;;;;;9.90;6.53;;;15.60;56.30;;;;;;5110877;28;20386;-64
2021/04/09 10:24:15;;;;;;;10.93;6.93;;;15.60;55.80;;;;;;5110754;28;20387;-64
2021/04/09 10:26:49;;;;;;;11.43;7.13;;;15.70;55.70;;;;;;5109782;28;20211;-64
2021/04/09 10:29:21;;;;;;;14.53;6.70;;;15.80;55.80;;;;;;5110640;28;20412;-64
2021/04/09 10:31:47;;;;;;;12.60;6.70;;;15.80;55.20;;;;;;5110006;28;20554;-64
2021/04/09 10:34:13;;;;;;;9.90;7.00;;;15.90;56.00;;;;;;5092216;28;20456;-64
2021/04/09 10:36:40;;;;;;;10.60;6.97;;;15.90;55.20;;;;;;5110484;28;20617;-64
2021/04/09 10:39:11;;;;;;;9.97;7.77;;;15.90;55.20;;;;;;5110542;28;20147;-64
2021/04/09 10:41:40;;;;;;;10.33;6.50;;;15.90;55.60;;;;;;5110347;28;20852;-64
2021/04/09 10:46:43;;;;;;;7.67;6.87;;;15.90;56.00;;;;;;5131212;27;20591;-64
2021/04/09 10:49:11;;;;;;;8.70;6.10;;;15.60;56.10;;;;;;5127070;28;20765;-64
2021/04/09 10:51:40;;;;;;;8.40;7.13;;;15.50;55.40;;;;;;5110967;28;20392;-64
2021/04/09 10:54:16;;;;;;;8.33;6.40;;;15.50;56.10;;;;;;5111028;28;20740;-64
2021/04/09 10:56:44;;;;;;;10.80;7.40;;;15.50;56.00;;;;;;5109695;28;20747;-64
2021/04/09 10:59:11;;;;;;;10.30;7.63;;;15.60;56.30;;;;;;5110869;28;20911;-64
2021/04/09 11:01:39;;;;;;;13.97;8.40;;;15.60;56.90;;;;;;5110722;28;20438;-65
2021/04/09 11:04:05;;;;;;;15.27;9.67;;;15.70;56.00;;;;;;5110609;28;20793;-64
2021/04/09 11:06:30;;;;;;;11.70;7.40;;;15.80;55.60;;;;;;5109824;28;20450;-65
2021/04/09 11:08:59;;;;;;;7.43;6.27;;;15.80;57.00;;;;;;5110311;28;20197;-64
2021/04/09 11:11:40;;;;;;;10.47;6.60;;;15.80;56.00;;;;;;5110292;28;20276;-64
2021/04/09 11:14:08;;;;;;;8.60;7.47;;;15.80;55.70;;;;;;5110239;28;20385;-65
2021/04/09 11:16:55;;;;;;;8.77;6.50;;;15.80;56.00;;;;;;5110276;28;20400;-66
2021/04/09 11:19:33;;;;;;;7.23;5.93;;;15.90;55.90;;;;;;5109619;28;20392;-64
2021/04/09 11:22:01;;;;;;;10.93;6.33;;;15.90;56.20;;;;;;5109148;28;20423;-64
2021/04/09 11:24:30;;;;;;;9.20;6.53;;;15.90;55.80;;;;;;5123952;28;20882;-65
2021/04/09 11:26:57;;;;;;;9.93;6.80;;;16.00;55.60;;;;;;5129544;28;20391;-64
2021/04/09 11:32:21;;;;;;;11.27;6.80;;;16.00;55.30;;;;;;5131612;27;20910;-66
2021/04/09 11:34:50;;;;;;;10.20;6.77;;;16.10;55.90;;;;;;5130536;28;20395;-66
2021/04/09 11:37:17;;;;;;;7.30;5.17;;;16.00;55.80;;;;;;5131454;27;20387;-64
2021/04/09 11:42:31;;;;;;;8.57;7.60;;;15.90;55.20;;;;;;5110823;27;20508;-64
2021/04/09 11:44:58;;;;;;;10.53;7.17;;;15.70;55.30;;;;;;5110892;28;20396;-64
2021/04/09 11:47:28;;;;;;;9.60;6.70;;;15.70;56.10;;;;;;5109346;28;20930;-64
2021/04/09 11:50:15;;;;;;;11.43;7.47;;;15.60;56.80;;;;;;5109787;28;20410;-64
2021/04/09 11:55:28;;;;;;;10.10;6.70;;;15.60;57.00;;;;;;5110934;27;20519;-64
2021/04/09 11:57:54;;;;;;;8.10;6.50;;;15.50;57.60;;;;;;5100210;28;20764;-64
2021/04/09 12:03:02;;;;;;;10.70;7.03;;;15.40;57.10;;;;;;5152121;27;20502;-64
2021/04/09 12:05:32;;;;;;;7.93;6.70;;;15.40;57.80;;;;;;5151032;27;20469;-64
2021/04/09 12:07:58;;;;;;;8.30;7.17;;;15.20;56.90;;;;;;5151863;27;20390;-65
2021/04/09 12:10:26;;;;;;;10.37;7.43;;;15.20;58.10;;;;;;5133704;27;20382;-64
2021/04/09 12:12:52;;;;;;;9.20;7.43;;;15.10;58.10;;;;;;5152311;27;20385;-64
2021/04/09 12:15:21;;;;;;;11.97;7.30;;;15.10;58.90;;;;;;5143647;27;20462;-64
2021/04/09 12:17:46;;;;;;;14.73;8.10;;;15.00;59.20;;;;;;5150325;27;20495;-64
2021/04/09 12:20:16;;;;;;;9.67;7.87;;;15.00;58.90;;;;;;5151458;27;20479;-64
2021/04/09 12:22:43;;;;;;;8.67;6.60;;;15.00;59.10;;;;;;5151759;27;20187;-64
2021/04/09 12:25:09;;;;;;;9.80;6.47;;;15.10;59.10;;;;;;5150633;27;20384;-64
2021/04/09 12:27:37;;;;;;;11.60;5.90;;;15.00;58.20;;;;;;5150337;27;20400;-64
2021/04/09 12:30:06;;;;;;;9.80;6.70;;;15.10;58.50;;;;;;5151751;27;20451;-64
2021/04/09 12:32:32;;;;;;;7.30;6.03;;;15.00;58.00;;;;;;5150569;27;20785;-64
2021/04/09 12:34:57;;;;;;;9.30;5.83;;;15.00;58.50;;;;;;5151656;27;20392;-65
2021/04/09 12:37:23;;;;;;;8.17;5.47;;;15.00;58.50;;;;;;5151675;27;20306;-64
2021/04/09 12:39:48;;;;;;;8.20;5.93;;;15.00;58.00;;;;;;5151739;27;20245;-64
2021/04/09 12:42:14;;;;;;;5.90;5.30;;;15.00;58.10;;;;;;5151379;27;20191;-64
2021/04/09 12:44:40;;;;;;;8.57;5.43;;;15.00;59.00;;;;;;5151380;27;20648;-64
2021/04/09 12:47:05;;;;;;;6.27;5.43;;;15.00;58.80;;;;;;5151347;27;20917;-64
2021/04/09 12:49:31;;;;;;;10.73;5.77;;;14.90;57.70;;;;;;5150318;27;20548;-64
2021/04/09 12:51:57;;;;;;;7.17;6.13;;;14.90;57.90;;;;;;5151438;27;20190;-64
2021/04/09 12:54:23;;;;;;;10.60;5.90;;;14.80;58.60;;;;;;5151017;27;20398;-64
2021/04/09 12:56:49;;;;;;;7.70;6.20;;;14.70;59.10;;;;;;5149787;27;20154;-64
2021/04/09 12:59:16;;;;;;;6.60;6.00;;;14.60;58.70;;;;;;5151276;27;20775;-64
2021/04/09 13:01:42;;;;;;;6.70;6.03;;;14.60;59.30;;;;;;5149673;27;20220;-64
2021/04/09 13:04:08;;;;;;;10.20;5.93;;;14.50;59.10;;;;;;5149929;27;20431;-64
2021/04/09 13:06:33;;;;;;;6.50;5.20;;;14.40;59.00;;;;;;5150372;27;20906;-64
2021/04/09 13:08:59;;;;;;;6.40;5.60;;;14.40;58.60;;;;;;5150992;27;20153;-64
2021/04/09 13:11:25;;;;;;;7.33;5.47;;;14.50;59.30;;;;;;5151019;27;20169;-64
2021/04/09 13:13:52;;;;;;;6.63;5.57;;;14.60;58.90;;;;;;5139578;27;20162;-64
2021/04/09 13:16:18;;;;;;;5.70;5.10;;;14.70;58.80;;;;;;5137034;27;20387;-64
2021/04/09 13:18:44;;;;;;;14.53;5.90;;;14.60;57.60;;;;;;5137063;27;20383;-64
2021/04/09 13:21:10;;;;;;;7.97;6.43;;;14.70;57.90;;;;;;5136903;27;20500;-64
2021/04/09 13:23:35;;;;;;;7.83;5.20;;;14.70;58.30;;;;;;5134915;27;20265;-64
2021/04/09 13:26:01;;;;;;;8.20;6.07;;;14.70;58.20;;;;;;5136906;27;20501;-64
2021/04/09 13:28:28;;;;;;;7.93;5.67;;;14.70;57.80;;;;;;5136743;27;20181;-64
2021/04/09 13:30:56;;;;;;;6.67;5.60;;;14.70;58.90;;;;;;5136756;27;20159;-64
2021/04/09 13:33:24;;;;;;;9.43;6.40;;;14.80;58.70;;;;;;5135413;27;20400;-64
2021/04/09 13:35:50;;;;;;;6.23;5.60;;;14.90;57.90;;;;;;5136628;27;20798;-64
2021/04/09 13:38:16;;;;;;;6.03;5.40;;;15.00;58.80;;;;;;5136427;27;20454;-64
2021/04/09 13:40:42;;;;;;;7.00;6.03;;;15.00;58.80;;;;;;5135678;27;20416;-64
2021/04/09 13:43:07;;;;;;;6.20;5.60;;;15.10;57.50;;;;;;5136337;27;20397;-64
2021/04/09 13:45:33;;;;;;;6.87;4.80;;;15.10;57.70;;;;;;5136642;27;20206;-64
2021/04/09 13:47:58;;;;;;;6.00;5.40;;;15.10;57.70;;;;;;5136370;27;20164;-64
2021/04/09 13:50:24;;;;;;;10.13;5.93;;;15.10;58.40;;;;;;5136487;27;20160;-64